Pena Blanca, New Mexico
Current Conditions -  °F | °C
As of 6:53 AM on Friday 31 Oct 2014 (Local Time) from KSAF Reporting Station
Clear Clear  
Wind Chill:   Ceiling: Unl
Heat Index:   Visibility: 10mi
Dew Point: -5°   Wind: 9mph
Humidity: 43%   Direction: 130°SE
Pressure: 30.42"   Gusts: NA
Location:  35.57°N, 106.34°W
Report Text: KSAF 311253Z 13008KT 10SM CLR 07/M05 A3042 RMK AO2 SLP245 T00671050
Loading
Personal Weather Stations






























Interactive Weather Map
Tropical Storm Tracking
New forecast layout! Learn more

10-Day Weather Forecast

Advertisements
Track Severe Weather on mobile